Time,TemperatureF,DewpointF,PressureIn,WindDirection,WindDirectionDegrees,WindSpeedMPH,WindSpeedGustMPH,Humidity,HourlyPrecipIn,Conditions,Clouds,dailyrainin,SoftwareType,DateUTC
2015-01-30 00:04:00,34.1,31.0,30.25,WNW,291,1.0,7.0,87,0.00,,,0.00,weatherlink.com 1.10,2015-01-30 05:04:00,
2015-01-30 00:19:00,34.2,31.0,30.26,SW,224,3.0,8.0,86,0.00,,,0.00,weatherlink.com 1.10,2015-01-30 05:19:00,
2015-01-30 00:34:00,34.3,30.0,30.26,SW,221,1.0,6.0,85,0.00,,,0.00,weatherlink.com 1.10,2015-01-30 05:34:00,
2015-01-30 00:49:00,34.4,30.0,30.26,SW,228,3.0,8.0,83,0.00,,,0.00,weatherlink.com 1.10,2015-01-30 05:49:00,
2015-01-30 01:04:00,34.5,30.0,30.26,WNW,283,2.0,11.0,82,0.00,,,0.00,weatherlink.com 1.10,2015-01-30 06:04:00,
2015-01-30 01:19:00,34.6,29.0,30.26,WNW,283,0.0,8.0,81,0.00,,,0.00,weatherlink.com 1.10,2015-01-30 06:19:00,
2015-01-30 01:34:00,34.5,29.0,30.26,West,271,0.0,3.0,81,0.00,,,0.00,weatherlink.com 1.10,2015-01-30 06:34:00,
2015-01-30 01:49:00,34.4,29.0,30.26,SW,225,0.0,5.0,81,0.00,,,0.00,weatherlink.com 1.10,2015-01-30 06:49:00,
2015-01-30 02:05:00,34.5,29.0,30.27,West,270,2.0,6.0,81,0.00,,,0.00,weatherlink.com 1.10,2015-01-30 07:05:00,
2015-01-30 02:19:00,34.5,29.0,30.27,WNW,300,1.0,7.0,81,0.00,,,0.00,weatherlink.com 1.10,2015-01-30 07:19:00,
2015-01-30 02:34:00,34.5,29.0,30.27,SSW,193,1.0,6.0,81,0.00,,,0.00,weatherlink.com 1.10,2015-01-30 07:34:00,
2015-01-30 02:49:00,34.5,29.0,30.28,West,271,5.0,14.0,81,0.00,,,0.00,weatherlink.com 1.10,2015-01-30 07:49:00,
2015-01-30 03:05:00,34.4,29.0,30.28,SW,227,6.0,6.0,81,0.00,,,0.00,weatherlink.com 1.10,2015-01-30 08:05:00,
2015-01-30 03:20:00,34.4,28.0,30.28,North,11,2.0,6.0,78,0.00,,,0.00,weatherlink.com 1.10,2015-01-30 08:20:00,
2015-01-30 03:35:00,34.5,28.0,30.29,SW,236,0.0,10.0,76,0.00,,,0.00,weatherlink.com 1.10,2015-01-30 08:35:00,
2015-01-30 03:50:00,34.5,28.0,30.29,SSE,148,1.0,9.0,76,0.00,,,0.00,weatherlink.com 1.10,2015-01-30 08:50:00,
2015-01-30 04:05:00,34.4,28.0,30.29,West,259,5.0,9.0,77,0.00,,,0.00,weatherlink.com 1.10,2015-01-30 09:05:00,
2015-01-30 04:20:00,34.4,28.0,30.30,West,270,2.0,9.0,77,0.00,,,0.00,weatherlink.com 1.10,2015-01-30 09:20:00,
2015-01-30 04:35:00,34.2,28.0,30.30,SW,221,3.0,10.0,77,0.00,,,0.00,weatherlink.com 1.10,2015-01-30 09:35:00,
2015-01-30 04:50:00,34.1,28.0,30.31,WNW,283,5.0,10.0,77,0.00,,,0.00,weatherlink.com 1.10,2015-01-30 09:50:00,
2015-01-30 05:05:00,34.0,28.0,30.31,SW,214,2.0,10.0,78,0.00,,,0.00,weatherlink.com 1.10,2015-01-30 10:05:00,
2015-01-30 05:20:00,33.9,28.0,30.32,North,11,1.0,8.0,78,0.00,,,0.00,weatherlink.com 1.10,2015-01-30 10:20:00,
2015-01-30 05:35:00,33.8,28.0,30.32,West,269,1.0,9.0,78,0.00,,,0.00,weatherlink.com 1.10,2015-01-30 10:35:00,
2015-01-30 05:50:00,32.9,28.0,30.34,NNW,330,4.0,7.0,83,0.00,,,0.00,weatherlink.com 1.10,2015-01-30 10:50:00,
2015-01-30 06:05:00,32.1,29.0,30.34,NW,309,1.0,9.0,87,0.00,,,0.00,weatherlink.com 1.10,2015-01-30 11:05:00,
2015-01-30 06:20:00,31.2,28.0,30.36,NW,317,6.0,15.0,86,0.00,,,0.00,weatherlink.com 1.10,2015-01-30 11:20:00,
2015-01-30 06:35:00,30.8,27.0,30.37,West,271,3.0,12.0,84,0.00,,,0.00,weatherlink.com 1.10,2015-01-30 11:35:00,
2015-01-30 06:50:00,30.6,26.0,30.39,North,349,8.0,11.0,82,0.00,,,0.00,weatherlink.com 1.10,2015-01-30 11:50:00,
2015-01-30 07:05:00,30.4,24.0,30.39,NNW,344,5.0,12.0,78,0.00,,,0.00,weatherlink.com 1.10,2015-01-30 12:05:00,
2015-01-30 07:20:00,30.1,23.0,30.40,NNW,329,3.0,6.0,76,0.00,,,0.00,weatherlink.com 1.10,2015-01-30 12:20:00,
2015-01-30 07:35:00,29.8,22.0,30.41,NNW,342,4.0,13.0,74,0.00,,,0.00,weatherlink.com 1.10,2015-01-30 12:35:00,
2015-01-30 07:50:00,29.7,22.0,30.42,SW,215,1.0,9.0,73,0.00,,,0.00,weatherlink.com 1.10,2015-01-30 12:50:00,
2015-01-30 08:05:00,29.3,22.0,30.43,NNW,332,3.0,12.0,73,0.00,,,0.00,weatherlink.com 1.10,2015-01-30 13:05:00,
2015-01-30 08:20:00,28.9,20.0,30.44,NNW,332,4.0,15.0,70,0.00,,,0.00,weatherlink.com 1.10,2015-01-30 13:20:00,
2015-01-30 08:36:00,28.4,17.0,30.45,NNW,330,18.0,22.0,62,0.00,,,0.00,weatherlink.com 1.10,2015-01-30 13:36:00,
2015-01-30 08:51:00,28.0,17.0,30.46,NW,322,9.0,15.0,63,0.00,,,0.00,weatherlink.com 1.10,2015-01-30 13:51:00,
2015-01-30 09:06:00,27.6,18.0,30.47,NNW,336,3.0,18.0,66,0.00,,,0.00,weatherlink.com 1.10,2015-01-30 14:06:00,
2015-01-30 09:21:00,27.7,16.0,30.48,NNW,345,9.0,16.0,63,0.00,,,0.00,weatherlink.com 1.10,2015-01-30 14:21:00,
2015-01-30 09:36:00,27.6,17.0,30.48,WNW,285,5.0,16.0,65,0.00,,,0.00,weatherlink.com 1.10,2015-01-30 14:36:00,
2015-01-30 09:51:00,27.8,15.0,30.49,WSW,250,8.0,19.0,60,0.00,,,0.00,weatherlink.com 1.10,2015-01-30 14:51:00,
2015-01-30 10:06:00,28.5,17.0,30.50,NW,325,10.0,16.0,62,0.00,,,0.00,weatherlink.com 1.10,2015-01-30 15:06:00,
2015-01-30 10:21:00,27.4,19.0,30.50,NE,51,3.0,14.0,72,0.00,,,0.00,weatherlink.com 1.10,2015-01-30 15:21:00,
2015-01-30 10:36:00,26.3,19.0,30.52,NNW,329,4.0,13.0,75,0.00,,,0.00,weatherlink.com 1.10,2015-01-30 15:36:00,
2015-01-30 10:51:00,27.0,19.0,30.52,NW,326,5.0,16.0,73,0.00,,,0.00,weatherlink.com 1.10,2015-01-30 15:51:00,
2015-01-30 11:06:00,27.1,18.0,30.52,NE,36,10.0,14.0,68,0.00,,,0.00,weatherlink.com 1.10,2015-01-30 16:06:00,
2015-01-30 11:21:00,27.1,17.0,30.53,NNW,330,12.0,17.0,67,0.00,,,0.00,weatherlink.com 1.10,2015-01-30 16:21:00,
2015-01-30 11:36:00,27.2,16.0,30.53,North,360,7.0,12.0,63,0.00,,,0.00,weatherlink.com 1.10,2015-01-30 16:36:00,
2015-01-30 12:06:00,28.0,16.0,30.53,North,353,9.0,14.0,61,0.00,,,0.00,weatherlink.com 1.10,2015-01-30 17:06:00,
2015-01-30 12:21:00,28.5,17.0,30.52,North,353,4.0,13.0,63,0.00,,,0.00,weatherlink.com 1.10,2015-01-30 17:21:00,
2015-01-30 12:36:00,27.8,15.0,30.52,NNE,27,4.0,15.0,60,0.00,,,0.00,weatherlink.com 1.10,2015-01-30 17:36:00,
2015-01-30 12:51:00,28.3,16.0,30.52,NNW,338,4.0,12.0,60,0.00,,,0.00,weatherlink.com 1.10,2015-01-30 17:51:00,
2015-01-30 13:06:00,28.0,16.0,30.51,NNW,333,6.0,12.0,62,0.00,,,0.00,weatherlink.com 1.10,2015-01-30 18:06:00,
2015-01-30 13:21:00,28.2,17.0,30.51,North,351,5.0,10.0,63,0.00,,,0.00,weatherlink.com 1.10,2015-01-30 18:21:00,
2015-01-30 13:36:00,28.2,17.0,30.51,NW,323,4.0,14.0,62,0.00,,,0.00,weatherlink.com 1.10,2015-01-30 18:36:00,
2015-01-30 13:51:00,28.4,17.0,30.52,North,353,7.0,11.0,62,0.00,,,0.00,weatherlink.com 1.10,2015-01-30 18:51:00,
2015-01-30 14:06:00,29.3,18.0,30.51,NNE,20,4.0,10.0,63,0.00,,,0.00,weatherlink.com 1.10,2015-01-30 19:06:00,
2015-01-30 14:21:00,28.5,17.0,30.51,SSW,210,2.0,9.0,63,0.00,,,0.00,weatherlink.com 1.10,2015-01-30 19:21:00,
2015-01-30 14:36:00,28.9,17.0,30.51,NNW,338,8.0,14.0,62,0.00,,,0.00,weatherlink.com 1.10,2015-01-30 19:36:00,
2015-01-30 14:52:00,28.7,17.0,30.50,NNE,18,4.0,9.0,62,0.00,,,0.00,weatherlink.com 1.10,2015-01-30 19:52:00,
2015-01-30 15:06:00,28.8,18.0,30.50,North,358,7.0,9.0,63,0.00,,,0.00,weatherlink.com 1.10,2015-01-30 20:06:00,
2015-01-30 15:21:00,29.0,17.0,30.50,NW,319,3.0,12.0,62,0.00,,,0.00,weatherlink.com 1.10,2015-01-30 20:21:00,
2015-01-30 15:36:00,30.0,18.0,30.51,North,359,7.0,9.0,61,0.00,,,0.00,weatherlink.com 1.10,2015-01-30 20:36:00,
2015-01-30 15:51:00,29.4,17.0,30.50,NNW,347,3.0,11.0,61,0.00,,,0.00,weatherlink.com 1.10,2015-01-30 20:51:00,
2015-01-30 16:06:00,29.9,18.0,30.51,North,358,1.0,7.0,62,0.00,,,0.00,weatherlink.com 1.10,2015-01-30 21:06:00,
2015-01-30 16:21:00,30.1,18.0,30.51,NE,51,6.0,9.0,61,0.00,,,0.00,weatherlink.com 1.10,2015-01-30 21:21:00,
2015-01-30 16:36:00,29.8,17.0,30.51,North,351,6.0,9.0,60,0.00,,,0.00,weatherlink.com 1.10,2015-01-30 21:36:00,
2015-01-30 16:51:00,29.3,18.0,30.51,NNW,327,7.0,8.0,62,0.00,,,0.00,weatherlink.com 1.10,2015-01-30 21:51:00,
2015-01-30 17:06:00,29.2,18.0,30.52,NNW,340,3.0,7.0,62,0.00,,,0.00,weatherlink.com 1.10,2015-01-30 22:06:00,
2015-01-30 17:21:00,29.2,18.0,30.52,NW,315,2.0,7.0,62,0.00,,,0.00,weatherlink.com 1.10,2015-01-30 22:21:00,
2015-01-30 17:36:00,28.9,18.0,30.52,West,267,0.0,5.0,63,0.00,,,0.00,weatherlink.com 1.10,2015-01-30 22:36:00,
2015-01-30 17:52:00,28.3,17.0,30.51,NNE,23,4.0,7.0,64,0.00,,,0.00,weatherlink.com 1.10,2015-01-30 22:52:00,
2015-01-30 18:07:00,28.0,18.0,30.52,NNW,344,1.0,4.0,65,0.00,,,0.00,weatherlink.com 1.10,2015-01-30 23:07:00,
2015-01-30 18:22:00,27.8,18.0,30.52,NNW,347,0.0,2.0,66,0.00,,,0.00,weatherlink.com 1.10,2015-01-30 23:22:00,
2015-01-30 18:37:00,27.7,18.0,30.52,NNE,20,1.0,3.0,67,0.00,,,0.00,weatherlink.com 1.10,2015-01-30 23:37:00,